»·PEaware :: DAL270 KIAH-KJFK

DAL270 :: KIAH-KJFK

FLIGHT INFORMATION

Flight Status: Arrived
Operator:
Delta Air Lines
More flights by this operator :: More flights under this callsign
Pilot: Anonymous 35349 (35349)
Aircraft: EMBRAER EMB-190/195
(E190)
More flights by this aircraft type
Origin: KIAH G Bush Intercontinental/Houst
United States
Destination: KJFK Kennedy Intl
United States
More flights between these airports :: More routes between these airports
Route:
File this flight plan on PilotEdge
Remarks:
Altitude:
(Current/Filed)
31,000ft
Speed:
(Current/Filed)
330kts
Departed: 01-Sep-21 10:39 PM
Arrived: 02-Sep-21 01:25 AM
Distance/Time
Traveled:
1229nm/2:46
Distance/Time
To Go:
Arrived

Flight Plot

Page will automatically refresh every two minutes.

Flight plan parsing failed; only flown route is shown


Map Options




Map Legend


Flown Route
Filed Route
Departure Airport
Arrival Airport
Navaid (VOR, NDB)
Fix

Horizontal Profiles

Position Reports

Time Latitude Longitude Heading Altitude Ground
Speed
01-Sep-21 22:33 29.988743 -95.354856 240 108ft 0kts
01-Sep-21 22:34 29.988740 -95.354861 240 108ft 0kts
01-Sep-21 22:35 29.988737 -95.354868 240 108ft 0kts
01-Sep-21 22:36 29.988034 -95.356273 238 108ft 2kts
01-Sep-21 22:37 29.986475 -95.357031 146 108ft 4kts
01-Sep-21 22:38 29.960009 -95.340750 151 1088ft 202kts
01-Sep-21 22:39 29.935386 -95.276924 74 3511ft 275kts
01-Sep-21 22:40 29.967474 -95.195755 67 5319ft 276kts
01-Sep-21 22:41 29.990982 -95.111368 79 7121ft 279kts
01-Sep-21 22:42 30.003533 -95.021869 84 8920ft 288kts
01-Sep-21 22:43 30.012498 -94.926763 85 10016ft 310kts
01-Sep-21 22:44 30.021133 -94.819721 85 11067ft 372kts
01-Sep-21 22:45 30.030656 -94.696514 85 12086ft 392kts
01-Sep-21 22:46 30.040265 -94.569543 85 13140ft 397kts
01-Sep-21 22:47 30.049625 -94.443353 85 14707ft 397kts
01-Sep-21 22:48 30.059917 -94.304531 84 16397ft 454kts
01-Sep-21 22:49 30.071360 -94.147095 85 17508ft 505kts
01-Sep-21 22:50 30.081918 -93.997709 84 18519ft 434kts
01-Sep-21 22:51 30.091539 -93.859029 84 19528ft 435kts
01-Sep-21 22:52 30.101143 -93.718971 84 20529ft 442kts
01-Sep-21 22:53 30.110757 -93.576659 84 21529ft 447kts
01-Sep-21 22:54 30.120329 -93.432635 84 22529ft 452kts
01-Sep-21 22:55 30.129876 -93.286502 85 23532ft 458kts
01-Sep-21 22:56 30.139618 -93.139113 83 24530ft 464kts
01-Sep-21 22:57 30.162734 -92.991066 76 25041ft 472kts
01-Sep-21 22:58 30.191855 -92.843080 76 25038ft 472kts
01-Sep-21 22:59 30.221141 -92.695572 76 25041ft 472kts
01-Sep-21 23:00 30.250151 -92.547239 76 25051ft 472kts
01-Sep-21 23:01 30.278712 -92.399265 76 25056ft 472kts
01-Sep-21 23:02 30.307150 -92.250454 76 25059ft 473kts
01-Sep-21 23:03 30.335293 -92.102008 76 25060ft 473kts
01-Sep-21 23:04 30.363296 -91.953258 76 25057ft 473kts
01-Sep-21 23:05 30.393423 -91.792371 77 25061ft 535kts
01-Sep-21 23:06 30.422937 -91.633017 77 25052ft 483kts
01-Sep-21 23:07 30.450563 -91.482796 77 25053ft 472kts
01-Sep-21 23:08 30.477813 -91.334035 77 25053ft 473kts
01-Sep-21 23:09 30.509551 -91.185812 74 25058ft 473kts
01-Sep-21 23:10 30.543411 -91.038113 74 25057ft 474kts
01-Sep-21 23:11 30.577173 -90.890771 74 25056ft 474kts
01-Sep-21 23:12 30.610811 -90.742740 75 25056ft 475kts
01-Sep-21 23:13 30.644306 -90.594179 75 25056ft 475kts
01-Sep-21 23:14 30.677579 -90.445562 75 25058ft 475kts
01-Sep-21 23:15 30.710612 -90.297080 75 25061ft 475kts
01-Sep-21 23:16 30.743545 -90.148144 75 25063ft 475kts
01-Sep-21 23:17 30.776216 -89.999517 75 25066ft 475kts
01-Sep-21 23:18 30.808795 -89.850470 76 25093ft 475kts
01-Sep-21 23:19 30.842219 -89.696546 76 25119ft 525kts
01-Sep-21 23:20 30.878747 -89.527654 76 25096ft 545kts
01-Sep-21 23:21 30.915677 -89.355446 76 25026ft 548kts
01-Sep-21 23:22 30.951986 -89.185159 76 25104ft 523kts
01-Sep-21 23:23 30.985509 -89.026479 76 25090ft 523kts
01-Sep-21 23:24 31.020709 -88.858520 77 25979ft 533kts
01-Sep-21 23:25 31.054084 -88.698350 77 26952ft 492kts
01-Sep-21 23:26 31.085916 -88.544160 77 27947ft 489kts
01-Sep-21 23:27 31.140073 -88.398218 60 28956ft 495kts
01-Sep-21 23:28 31.213222 -88.260552 58 29957ft 502kts
01-Sep-21 23:29 31.283098 -88.132598 58 30878ft 508kts
01-Sep-21 23:30 31.364490 -87.995683 50 31235ft 517kts
01-Sep-21 23:31 31.462942 -87.872138 46 31218ft 520kts
01-Sep-21 23:32 31.563611 -87.750458 47 31212ft 520kts
01-Sep-21 23:33 31.663329 -87.627851 47 31210ft 521kts
01-Sep-21 23:34 31.762525 -87.503740 47 31208ft 520kts
01-Sep-21 23:35 31.860978 -87.379047 48 31206ft 520kts
01-Sep-21 23:36 31.959135 -87.253689 48 31204ft 520kts
01-Sep-21 23:37 32.056729 -87.128294 48 31208ft 520kts
01-Sep-21 23:38 32.154362 -87.002243 48 31204ft 521kts
01-Sep-21 23:39 32.251937 -86.875736 48 31202ft 521kts
01-Sep-21 23:40 32.349321 -86.748994 48 31199ft 520kts
01-Sep-21 23:41 32.446414 -86.622165 48 31206ft 520kts
01-Sep-21 23:42 32.543412 -86.495003 48 31195ft 520kts
01-Sep-21 23:43 32.639999 -86.367933 49 31201ft 520kts
01-Sep-21 23:44 32.737171 -86.239637 49 31217ft 520kts
01-Sep-21 23:45 32.833742 -86.111684 49 31226ft 521kts
01-Sep-21 23:46 32.930322 -85.983258 48 31228ft 521kts
01-Sep-21 23:47 33.026637 -85.854729 48 31229ft 521kts
01-Sep-21 23:48 33.118635 -85.731545 48 31233ft 521kts
01-Sep-21 23:49 33.214725 -85.602434 48 31234ft 521kts
01-Sep-21 23:50 33.311143 -85.472418 48 31238ft 522kts
01-Sep-21 23:51 33.407261 -85.342334 48 31250ft 522kts
01-Sep-21 23:52 33.503371 -85.211788 49 31268ft 523kts
01-Sep-21 23:53 33.599302 -85.081005 49 31276ft 523kts
01-Sep-21 23:54 33.695392 -84.949525 49 31265ft 523kts
01-Sep-21 23:55 33.791078 -84.818113 49 31249ft 524kts
01-Sep-21 23:56 33.887054 -84.685814 49 31241ft 524kts
01-Sep-21 23:57 33.982925 -84.553166 49 31239ft 524kts
01-Sep-21 23:58 34.078406 -84.420564 49 31243ft 525kts
01-Sep-21 23:59 34.174320 -84.286866 49 31255ft 526kts
02-Sep-21 00:00 34.269832 -84.153221 49 31261ft 526kts
02-Sep-21 00:01 34.365268 -84.019175 49 31270ft 526kts
02-Sep-21 00:02 34.460844 -83.884410 49 31263ft 526kts
02-Sep-21 00:03 34.555903 -83.749862 49 31254ft 526kts
02-Sep-21 00:04 34.650976 -83.614772 49 31253ft 525kts
02-Sep-21 00:05 34.745562 -83.479855 49 31238ft 525kts
02-Sep-21 00:06 34.840138 -83.344429 49 31231ft 525kts
02-Sep-21 00:07 34.934431 -83.208885 49 31230ft 525kts
02-Sep-21 00:08 35.028727 -83.072811 49 31233ft 525kts
02-Sep-21 00:09 35.122886 -82.936399 49 31234ft 525kts
02-Sep-21 00:10 35.216685 -82.799977 49 31240ft 525kts
02-Sep-21 00:11 35.310669 -82.662741 49 31263ft 526kts
02-Sep-21 00:12 35.404344 -82.525414 49 31277ft 527kts
02-Sep-21 00:13 35.498504 -82.386823 49 31274ft 528kts
02-Sep-21 00:14 35.592490 -82.247931 49 31256ft 529kts
02-Sep-21 00:15 35.686388 -82.108605 49 31243ft 530kts
02-Sep-21 00:16 35.780147 -81.968916 49 31244ft 531kts
02-Sep-21 00:17 35.874037 -81.828461 49 31265ft 531kts
02-Sep-21 00:18 35.967745 -81.687699 50 31276ft 531kts
02-Sep-21 00:19 36.061316 -81.546566 50 31305ft 530kts
02-Sep-21 00:20 36.154602 -81.405272 50 31317ft 530kts
02-Sep-21 00:21 36.230585 -81.250731 67 31301ft 530kts
02-Sep-21 00:22 36.282228 -81.079402 70 31273ft 529kts
02-Sep-21 00:23 36.331029 -80.907552 70 31269ft 528kts
02-Sep-21 00:24 36.380064 -80.736285 70 31254ft 527kts
02-Sep-21 00:25 36.429945 -80.564806 70 31241ft 526kts
02-Sep-21 00:26 36.480464 -80.394049 70 31239ft 527kts
02-Sep-21 00:27 36.533411 -80.218044 69 31225ft 571kts
02-Sep-21 00:28 36.591229 -80.029688 69 31235ft 570kts
02-Sep-21 00:29 36.648157 -79.847738 69 31222ft 544kts
02-Sep-21 00:30 36.703133 -79.675218 68 31208ft 530kts
02-Sep-21 00:31 36.758238 -79.505444 68 31200ft 527kts
02-Sep-21 00:32 36.813955 -79.336930 68 31197ft 526kts
02-Sep-21 00:33 36.870657 -79.168637 67 31198ft 526kts
02-Sep-21 00:34 36.928247 -79.000960 67 31185ft 526kts
02-Sep-21 00:35 36.986840 -78.833658 67 31186ft 526kts
02-Sep-21 00:36 37.041477 -78.680584 66 31183ft 526kts
02-Sep-21 00:37 37.101957 -78.514374 66 31177ft 527kts
02-Sep-21 00:38 37.163993 -78.347369 66 31168ft 528kts
02-Sep-21 00:39 37.227034 -78.181194 65 31168ft 528kts
02-Sep-21 00:40 37.291368 -78.015225 65 31172ft 529kts
02-Sep-21 00:41 37.357178 -77.849154 64 31166ft 530kts
02-Sep-21 00:42 37.423882 -77.684587 64 31163ft 530kts
02-Sep-21 00:43 37.492268 -77.519723 63 31158ft 530kts
02-Sep-21 00:44 37.561725 -77.356217 62 31151ft 530kts
02-Sep-21 00:45 37.632466 -77.193699 62 31151ft 529kts
02-Sep-21 00:46 37.703315 -77.034922 61 31151ft 529kts
02-Sep-21 00:47 37.776996 -76.873955 60 31145ft 529kts
02-Sep-21 00:48 37.851945 -76.714496 59 31144ft 528kts
02-Sep-21 00:49 37.928751 -76.555495 58 31142ft 528kts
02-Sep-21 00:50 38.006717 -76.398588 57 31142ft 528kts
02-Sep-21 00:51 38.086906 -76.241851 57 31140ft 528kts
02-Sep-21 00:52 38.168612 -76.086939 56 31140ft 528kts
02-Sep-21 00:53 38.252152 -75.933479 55 31138ft 528kts
02-Sep-21 00:54 38.335660 -75.785040 54 30168ft 495kts
02-Sep-21 00:55 38.414447 -75.649754 53 28758ft 457kts
02-Sep-21 00:57 38.489425 -75.525183 51 27354ft 431kts
02-Sep-21 00:58 38.564967 -75.409228 46 25939ft 420kts
02-Sep-21 00:59 38.650827 -75.309738 37 24543ft 413kts
02-Sep-21 01:00 38.742981 -75.224782 32 23148ft 404kts
02-Sep-21 01:01 38.836745 -75.148156 30 21733ft 394kts
02-Sep-21 01:02 38.929526 -75.076431 28 20299ft 384kts
02-Sep-21 01:03 39.020423 -75.007762 28 18896ft 373kts
02-Sep-21 01:04 39.109125 -74.941308 28 17495ft 364kts
02-Sep-21 01:05 39.195870 -74.876441 28 16087ft 356kts
02-Sep-21 01:06 39.280545 -74.813062 28 14684ft 349kts
02-Sep-21 01:07 39.363548 -74.750805 28 13283ft 341kts
02-Sep-21 01:08 39.444371 -74.690019 28 12164ft 326kts
02-Sep-21 01:09 39.522470 -74.631150 28 12107ft 326kts
02-Sep-21 01:10 39.601588 -74.571399 28 11998ft 330kts
02-Sep-21 01:11 39.680869 -74.511326 28 11994ft 330kts
02-Sep-21 01:12 39.760089 -74.451138 28 11990ft 330kts
02-Sep-21 01:13 39.839355 -74.390747 28 11987ft 330kts
02-Sep-21 01:14 39.918587 -74.330223 28 11983ft 330kts
02-Sep-21 01:15 39.997743 -74.269589 28 11981ft 330kts
02-Sep-21 01:16 40.077188 -74.208567 28 11990ft 331kts
02-Sep-21 01:17 40.147821 -74.154177 28 11891ft 333kts
02-Sep-21 01:18 40.229139 -74.091415 28 10297ft 339kts
02-Sep-21 01:19 40.310171 -74.028642 28 8692ft 336kts
02-Sep-21 01:20 40.390692 -73.966119 28 6961ft 338kts
02-Sep-21 01:21 40.471713 -73.903024 29 5172ft 338kts
02-Sep-21 01:22 40.542693 -73.846089 31 2582ft 241kts
02-Sep-21 01:23 40.596249 -73.805684 33 495ft 244kts
02-Sep-21 01:24 40.642360 -73.769839 34 24ft 56kts
02-Sep-21 01:25 40.643688 -73.775029 275 24ft 3kts
02-Sep-21 01:26 40.644161 -73.775913 3 24ft 0kts
02-Sep-21 01:27 40.644162 -73.775913 3 24ft 0kts

Navigation Log

Ident Type
Flight plan parsing failed, navigation log unavailable